Carson City, Nevada
Current Conditions -  °F | °C
As of 12:15 PM on Friday 19 Dec 2014 (Local Time) from KCXP Reporting Station
Light Rain Light Rain  
Wind Chill: 39°   Ceiling: Unl
Heat Index: 45°   Visibility: 5mi
Dew Point: 37°   Wind: 10mph
Humidity: 76%   Direction: 210°SSW
Pressure: 30.11"   Gusts: 17mph
Location:  39.16°N, 119.77°W
Report Text: KCXP 192015Z AUTO 21009G15KT 5SM -RA FEW026 FEW035 SCT045 07/03 A3011 RMK AO2
Loading
Personal Weather Stations






























Interactive Weather Map New forecast layout! Learn more

10-Day Weather Forecast

Advertisements
Track Severe Weather on mobile